Time;durP1;ratioP1;P1;durP2;ratioP2;P2;SDS_P1;SDS_P2;PMS_P1;PMS_P2;Temp;Humidity;BMP_temperature;BMP_pressure;BME280_temperature;BME280_humidity;BME280_pressure;Samples;Min_cycle;Max_cycle;Signal;HPM_P1;HPM_P2
2020/12/24 00:01:48;;;;;;;6.55;2.85;;;;;;;;;;5053854;28;20117;-68
2020/12/24 00:04:14;;;;;;;8.43;2.83;;;;;;;;;;5053868;28;20116;-68
2020/12/24 00:06:40;;;;;;;7.38;3.13;;;;;;;;;;5054079;28;20025;-67
2020/12/24 00:09:07;;;;;;;8.88;2.95;;;;;;;;;;5053574;28;20468;-67
2020/12/24 00:11:33;;;;;;;11.27;4.03;;;;;;;;;;5053790;28;20021;-67
2020/12/24 00:13:59;;;;;;;13.55;3.30;;;;;;;;;;5053525;28;20032;-67
2020/12/24 00:16:25;;;;;;;6.50;2.75;;;;;;;;;;5053306;28;20136;-66
2020/12/24 00:18:52;;;;;;;10.88;3.42;;;;;;;;;;5053426;28;20124;-68
2020/12/24 00:21:18;;;;;;;9.48;3.03;;;;;;;;;;5053197;28;20036;-66
2020/12/24 00:23:44;;;;;;;13.18;3.60;;;;;;;;;;5053599;28;20120;-67
2020/12/24 00:26:10;;;;;;;9.32;3.08;;;;;;;;;;5053371;28;20120;-68
2020/12/24 00:28:37;;;;;;;7.82;3.00;;;;;;;;;;5053456;28;20032;-66
2020/12/24 00:31:03;;;;;;;10.00;3.80;;;;;;;;;;5053171;28;20033;-68
2020/12/24 00:33:29;;;;;;;6.55;2.65;;;;;;;;;;5053256;28;20110;-68
2020/12/24 00:35:55;;;;;;;16.15;3.88;;;;;;;;;;5052987;28;20142;-68
2020/12/24 00:38:21;;;;;;;12.18;3.30;;;;;;;;;;5053351;28;20028;-68
2020/12/24 00:40:48;;;;;;;7.75;2.85;;;13.90;57.10;;;;;;5053026;28;20039;-67
2020/12/24 00:43:14;;;;;;;7.72;2.97;;;;;;;;;;5052502;28;20032;-68
2020/12/24 00:45:41;;;;;;;6.10;2.75;;;;;;;;;;5051804;28;20029;-68
2020/12/24 00:48:07;;;;;;;5.03;2.42;;;;;;;;;;5053693;28;20043;-67
2020/12/24 00:50:33;;;;;;;9.15;2.95;;;;;;;;;;5051798;28;20484;-68
2020/12/24 00:53:00;;;;;;;4.05;2.40;;;;;;;;;;5051948;28;20044;-70
2020/12/24 00:55:27;;;;;;;5.25;3.05;;;;;;;;;;5051570;28;20041;-71
2020/12/24 00:57:56;;;;;;;4.28;2.28;;;;;;;;;;5053180;28;20036;-70
2020/12/24 01:00:23;;;;;;;3.13;2.25;;;;;;;;;;5051517;28;20492;-72
2020/12/24 01:02:50;;;;;;;3.58;2.30;;;;;;;;;;5051486;28;20040;-72
2020/12/24 01:05:16;;;;;;;4.30;2.30;;;;;;;;;;5052567;28;20033;-73
2020/12/24 01:07:44;;;;;;;4.18;2.45;;;;;;;;;;5036913;28;20098;-68
2020/12/24 01:10:11;;;;;;;4.72;2.45;;;;;;;;;;5052686;28;20068;-68
2020/12/24 01:12:37;;;;;;;2.20;2.10;;;;;;;;;;5052315;28;20537;-69
2020/12/24 01:15:08;;;;;;;4.20;2.53;;;13.10;60.20;;;;;;5052242;28;20124;-69
2020/12/24 01:17:34;;;;;;;5.60;2.35;;;;;;;;;;5051834;28;20356;-69
2020/12/24 01:20:00;;;;;;;5.82;2.58;;;;;;;;;;5050932;28;20040;-70
2020/12/24 01:22:27;;;;;;;4.95;2.38;;;;;;;;;;5052290;28;20033;-69
2020/12/24 01:24:53;;;;;;;4.10;2.47;;;;;;;;;;5052477;28;20119;-72
2020/12/24 01:27:19;;;;;;;4.13;2.63;;;;;;;;;;5052259;28;20383;-70
2020/12/24 01:29:45;;;;;;;7.28;2.78;;;;;;;;;;5052944;28;20032;-70
2020/12/24 01:32:11;;;;;;;7.85;2.83;;;;;;;;;;5054571;28;20502;-72
2020/12/24 01:34:38;;;;;;;6.80;2.80;;;;;;;;;;5051821;28;20036;-71
2020/12/24 01:37:04;;;;;;;7.65;3.33;;;;;;;;;;5051855;28;20122;-70
2020/12/24 01:39:30;;;;;;;3.92;2.55;;;;;;;;;;5051999;28;20125;-69
2020/12/24 01:41:57;;;;;;;3.35;2.55;;;;;;;;;;5051957;28;20029;-68
2020/12/24 01:44:23;;;;;;;4.13;2.80;;;;;;;;;;5051849;28;20040;-69
2020/12/24 01:46:49;;;;;;;7.60;3.10;;;;;;;;;;5051849;28;20036;-69
2020/12/24 01:49:18;;;;;;;10.70;2.97;;;13.90;58.60;;;;;;5051602;28;20029;-70
2020/12/24 01:54:55;;;;;;;8.10;2.83;;;14.00;58.40;;;;;;5051683;28;20033;-68
2020/12/24 01:57:21;;;;;;;10.35;2.70;;;;;;;;;;5033321;28;20056;-69
2020/12/24 01:59:48;;;;;;;5.75;2.80;;;;;;;;;;5050276;28;20033;-69
2020/12/24 02:02:15;;;;;;;5.35;2.70;;;;;;;;;;5051588;28;20190;-68
2020/12/24 02:04:41;;;;;;;13.38;3.13;;;;;;;;;;5051662;28;20029;-68
2020/12/24 02:07:07;;;;;;;6.55;3.00;;;;;;;;;;5049961;28;20495;-66
2020/12/24 02:09:34;;;;;;;3.45;2.60;;;;;;;;;;5051636;28;20040;-67
2020/12/24 02:12:00;;;;;;;5.22;3.00;;;;;;;;;;5051517;28;20065;-67
2020/12/24 02:14:26;;;;;;;9.65;3.03;;;;;;;;;;5051010;28;20484;-67
2020/12/24 02:16:52;;;;;;;6.60;3.08;;;;;;;;;;5051091;28;20049;-67
2020/12/24 02:19:19;;;;;;;11.90;3.30;;;;;;;;;;5051133;28;20442;-67
2020/12/24 02:21:45;;;;;;;14.23;2.90;;;;;;;;;;5051380;28;20491;-67
2020/12/24 02:24:11;;;;;;;7.45;3.28;;;;;;;;;;5051234;28;20480;-66
2020/12/24 02:26:37;;;;;;;10.35;3.10;;;;;;;;;;5051594;28;20028;-66
2020/12/24 02:29:04;;;;;;;12.88;3.28;;;;;;;;;;5051243;28;20025;-65
2020/12/24 02:31:30;;;;;;;7.53;3.28;;;;;;;;;;5050860;28;20155;-67
2020/12/24 02:33:56;;;;;;;18.50;3.75;;;;;;;;;;5051492;28;20079;-67
2020/12/24 02:36:22;;;;;;;6.05;3.65;;;;;;;;;;5050965;28;20029;-66
2020/12/24 02:38:48;;;;;;;12.45;3.35;;;;;;;;;;5051256;28;20067;-66
2020/12/24 02:41:15;;;;;;;14.60;3.50;;;;;;;;;;5051066;28;20029;-67
2020/12/24 02:43:45;;;;;;;10.20;3.50;;;;;;;;;;5051027;28;20391;-67
2020/12/24 02:46:12;;;;;;;11.07;3.47;;;;;;;;;;5050719;28;20044;-67
2020/12/24 02:48:38;;;;;;;24.65;3.65;;;;;;;;;;5037233;28;20029;-68
2020/12/24 02:51:04;;;;;;;24.15;5.07;;;;;;;;;;5051041;28;20380;-69
2020/12/24 02:53:30;;;;;;;16.77;3.80;;;;;;;;;;5050952;28;20102;-67
2020/12/24 02:55:57;;;;;;;22.00;3.88;;;;;;;;;;5041094;28;20037;-68
2020/12/24 02:58:24;;;;;;;11.35;3.63;;;;;;;;;;5051097;28;20086;-68
2020/12/24 03:00:50;;;;;;;14.00;3.95;;;;;;;;;;5050504;28;20040;-68
2020/12/24 03:03:17;;;;;;;12.32;3.63;;;;;;;;;;5051187;28;20086;-68
2020/12/24 03:05:43;;;;;;;10.30;3.50;;;;;;;;;;5052802;28;20021;-68
2020/12/24 03:08:09;;;;;;;13.95;3.20;;;;;;;;;;5055039;28;20040;-68
2020/12/24 03:10:36;;;;;;;20.70;3.97;;;;;;;;;;5054784;28;20021;-69
2020/12/24 03:13:02;;;;;;;13.38;3.63;;;;;;;;;;5054830;28;20025;-67
2020/12/24 03:15:28;;;;;;;8.07;3.25;;;;;;;;;;5054115;28;20033;-67
2020/12/24 03:17:54;;;;;;;12.00;3.60;;;;;;;;;;5054920;28;20029;-67
2020/12/24 03:20:21;;;;;;;10.95;3.70;;;;;;;;;;5054978;28;20120;-68
2020/12/24 03:22:47;;;;;;;8.05;3.15;;;;;;;;;;5054508;28;20451;-67
2020/12/24 03:25:13;;;;;;;15.57;3.38;;;;;;;;;;5054527;28;20451;-68
2020/12/24 03:27:39;;;;;;;14.82;3.45;;;;;;;;;;5054462;28;20025;-69
2020/12/24 03:30:07;;;;;;;9.48;3.20;;;13.40;61.50;;;;;;5054345;28;20041;-69
2020/12/24 03:32:34;;;;;;;8.77;3.58;;;;;;;;;;5054154;28;20082;-68
2020/12/24 03:35:00;;;;;;;11.93;3.30;;;;;;;;;;5054490;28;20043;-68
2020/12/24 03:37:26;;;;;;;20.15;3.67;;;;;;;;;;5054464;28;20037;-67
2020/12/24 03:39:52;;;;;;;10.55;3.60;;;;;;;;;;5053060;28;20041;-68
2020/12/24 03:42:19;;;;;;;12.90;3.42;;;;;;;;;;5054344;28;20086;-67
2020/12/24 03:44:45;;;;;;;11.10;3.40;;;;;;;;;;5053970;28;20047;-68
2020/12/24 03:47:11;;;;;;;13.07;3.67;;;;;;;;;;5052824;28;20037;-68
2020/12/24 03:49:37;;;;;;;12.65;3.38;;;;;;;;;;5054269;28;20029;-67
2020/12/24 03:52:04;;;;;;;18.58;3.78;;;;;;;;;;5054332;28;20029;-67
2020/12/24 03:54:30;;;;;;;11.38;3.25;;;;;;;;;;5055364;28;20130;-67
2020/12/24 03:56:56;;;;;;;14.95;3.83;;;;;;;;;;5054221;28;20037;-68
2020/12/24 03:59:22;;;;;;;10.18;3.20;;;;;;;;;;5053993;28;20702;-67
2020/12/24 04:01:49;;;;;;;9.20;3.45;;;;;;;;;;5053658;28;20033;-67
2020/12/24 04:04:15;;;;;;;19.42;4.05;;;;;;;;;;5053947;28;20032;-68
2020/12/24 04:06:41;;;;;;;14.90;3.45;;;;;;;;;;5053567;28;20391;-68
2020/12/24 04:09:07;;;;;;;21.33;4.45;;;;;;;;;;5052585;28;20483;-67
2020/12/24 04:11:34;;;;;;;19.67;4.40;;;;;;;;;;5053829;28;20041;-68
2020/12/24 04:14:00;;;;;;;13.13;4.22;;;;;;;;;;5053511;28;20033;-67
2020/12/24 04:16:26;;;;;;;15.13;3.83;;;;;;;;;;5052212;28;20422;-67
2020/12/24 04:18:53;;;;;;;16.55;3.55;;;;;;;;;;5053543;28;20033;-67
2020/12/24 04:21:20;;;;;;;15.25;4.03;;;;;;;;;;5053778;28;20029;-67
2020/12/24 04:23:47;;;;;;;17.80;3.63;;;;;;;;;;5053315;28;20414;-67
2020/12/24 04:26:23;;;;;;;15.45;3.20;;;13.80;59.90;;;;;;5053510;28;20033;-67
2020/12/24 04:28:49;;;;;;;16.65;4.32;;;;;;;;;;5053251;28;20024;-67
2020/12/24 04:31:16;;;;;;;10.05;3.55;;;;;;;;;;5053130;28;20033;-68
2020/12/24 04:33:43;;;;;;;11.48;4.25;;;13.70;60.00;;;;;;5051765;28;20498;-65
2020/12/24 04:36:09;;;;;;;12.38;3.40;;;;;;;;;;5053621;28;20032;-68
2020/12/24 04:38:35;;;;;;;16.38;3.47;;;;;;;;;;5054690;28;20040;-66
2020/12/24 04:41:02;;;;;;;6.75;2.80;;;;;;;;;;5053129;28;20033;-67
2020/12/24 04:43:28;;;;;;;8.00;3.28;;;;;;;;;;5053237;28;20526;-69
2020/12/24 04:45:55;;;;;;;14.02;3.65;;;13.60;59.80;;;;;;5052707;28;20057;-67
2020/12/24 04:48:21;;;;;;;;;;;13.60;60.30;;;;;;5053537;28;20391;-67
2020/12/24 04:50:51;;;;;;;7.47;3.30;;;13.60;60.00;;;;;;5052849;28;19909;-68
2020/12/24 04:53:18;;;;;;;13.13;3.33;;;13.70;59.80;;;;;;5068289;28;20475;-67
2020/12/24 04:55:45;;;;;;;11.30;3.88;;;13.70;59.50;;;;;;5052912;28;20060;-67
2020/12/24 04:58:12;;;;;;;5.85;2.85;;;;;;;;;;5052713;28;20029;-67
2020/12/24 05:00:39;;;;;;;9.48;3.25;;;13.80;59.00;;;;;;5052616;28;20025;-67
2020/12/24 05:03:10;;;;;;;8.55;3.30;;;13.80;59.30;;;;;;5051110;28;20044;-66
2020/12/24 05:05:38;;;;;;;8.35;3.30;;;13.90;59.20;;;;;;5052544;28;20035;-67
2020/12/24 05:08:08;;;;;;;12.13;3.03;;;13.80;59.10;;;;;;5052716;28;20033;-67
2020/12/24 05:10:36;;;;;;;10.15;3.42;;;13.90;59.00;;;;;;5052267;28;20033;-67
2020/12/24 05:13:19;;;;;;;17.00;3.58;;;13.80;59.30;;;;;;5052459;28;20033;-67
2020/12/24 05:15:45;;;;;;;12.23;3.70;;;;;;;;;;5052104;28;20380;-66
2020/12/24 05:18:19;;;;;;;22.05;3.75;;;13.80;59.50;;;;;;5052430;28;20037;-66
2020/12/24 05:20:46;;;;;;;10.65;4.00;;;13.90;59.20;;;;;;5046874;28;20029;-67
2020/12/24 05:23:18;;;;;;;13.98;3.53;;;13.80;59.10;;;;;;5044159;28;20040;-67
2020/12/24 05:25:46;;;;;;;15.23;4.50;;;14.00;59.20;;;;;;5050744;28;20076;-66
2020/12/24 05:28:22;;;;;;;10.32;4.07;;;13.90;58.80;;;;;;5052381;28;20056;-67
2020/12/24 05:30:49;;;;;;;13.55;3.38;;;13.90;59.10;;;;;;5050848;28;20060;-65
2020/12/24 05:33:28;;;;;;;10.50;4.05;;;13.90;58.70;;;;;;5052276;28;20024;-65
2020/12/24 05:36:16;;;;;;;12.05;3.63;;;13.90;58.90;;;;;;5051506;28;20068;-67
2020/12/24 05:38:42;;;;;;;20.45;3.97;;;;;;;;;;5052010;28;20033;-64
2020/12/24 05:41:29;;;;;;;18.42;4.20;;;14.00;59.20;;;;;;5051756;28;20033;-65
2020/12/24 05:43:59;;;;;;;18.13;3.97;;;13.90;59.00;;;;;;5051811;28;20033;-66
2020/12/24 05:46:38;;;;;;;16.15;4.38;;;13.80;59.20;;;;;;5051782;28;20463;-66
2020/12/24 05:49:21;;;;;;;11.52;3.50;;;13.70;59.60;;;;;;4781356;28;10001277;-66
2020/12/24 05:51:48;;;;;;;7.88;3.47;;;13.70;59.80;;;;;;5049674;28;20250;-66
2020/12/24 05:54:15;;;;;;;7.65;3.15;;;13.70;59.60;;;;;;5049249;28;20219;-67
2020/12/24 05:56:43;;;;;;;15.10;3.67;;;13.70;59.60;;;;;;5049484;28;20039;-66
2020/12/24 05:59:18;;;;;;;14.48;4.47;;;13.70;59.80;;;;;;5049381;28;20107;-67
2020/12/24 06:02:09;;;;;;;16.02;3.88;;;13.80;59.90;;;;;;5036856;28;20055;-66
2020/12/24 06:04:46;;;;;;;10.27;3.83;;;13.60;59.70;;;;;;5049305;28;20039;-66
2020/12/24 06:07:29;;;;;;;2.60;2.40;;;12.10;60.80;;;;;;5035372;28;20017;-65
2020/12/24 06:10:04;;;;;;;2.65;2.45;;;9.90;67.00;;;;;;5048923;28;20032;-65
2020/12/24 06:12:30;;;;;;;3.20;3.00;;;;;;;;;;5049426;28;20025;-65
2020/12/24 06:15:00;;;;;;;3.10;2.90;;;8.20;73.30;;;;;;5048917;28;20040;-65
2020/12/24 06:17:28;;;;;;;3.60;3.30;;;8.10;74.50;;;;;;5048891;28;20047;-66
2020/12/24 06:19:55;;;;;;;3.05;2.85;;;;;;;;;;5049138;28;20029;-66
2020/12/24 06:22:23;;;;;;;3.50;3.17;;;8.20;73.10;;;;;;5048588;28;20125;-66
2020/12/24 06:24:57;;;;;;;3.00;2.80;;;8.20;72.40;;;;;;5048806;28;20139;-67
2020/12/24 06:28:01;;;;;;;3.10;2.90;;;7.90;71.60;;;;;;5048942;28;20024;-64
2020/12/24 06:30:30;;;;;;;3.75;3.10;;;;;;;;;;5009387;28;20041;-67
2020/12/24 06:32:58;;;;;;;3.40;3.20;;;;;;;;;;5026185;28;20030;-67
2020/12/24 06:35:38;;;;;;;3.53;3.22;;;7.20;75.90;;;;;;5009214;28;20139;-66
2020/12/24 06:38:08;;;;;;;3.20;3.00;;;7.20;75.80;;;;;;5014089;28;20068;-66
2020/12/24 06:40:36;;;;;;;3.90;3.53;;;7.30;75.10;;;;;;5012993;28;20107;-68
2020/12/24 06:43:03;;;;;;;3.40;3.10;;;;;;;;;;5023387;28;20030;-68
2020/12/24 06:45:29;;;;;;;3.45;3.20;;;;;;;;;;5020196;28;20041;-67
2020/12/24 06:48:24;;;;;;;3.30;3.10;;;7.30;74.90;;;;;;5015653;28;20054;-67
2020/12/24 06:51:02;;;;;;;4.10;2.97;;;7.20;74.80;;;;;;5002594;28;20045;-68
2020/12/24 06:53:28;;;;;;;3.10;2.90;;;;;;;;;;5018461;28;20046;-65
2020/12/24 06:56:09;;;;;;;3.00;2.80;;;7.20;73.70;;;;;;5021891;28;20033;-69
2020/12/24 06:58:46;;;;;;;3.80;3.00;;;7.40;73.40;;;;;;5019063;28;20080;-68
2020/12/24 07:01:26;;;;;;;3.20;3.00;;;7.50;72.30;;;;;;5017534;28;20231;-69
2020/12/24 07:03:52;;;;;;;3.10;2.90;;;;;;;;;;5014852;28;20562;-69
2020/12/24 07:06:44;;;;;;;3.60;3.00;;;7.00;73.70;;;;;;5012031;28;20050;-68
2020/12/24 07:09:19;;;;;;;3.03;2.83;;;7.20;73.90;;;;;;5036637;28;20175;-68
2020/12/24 07:11:47;;;;;;;3.00;2.80;;;7.20;73.10;;;;;;5048909;28;20483;-66
2020/12/24 07:14:30;;;;;;;3.72;3.00;;;7.10;74.10;;;;;;5050575;28;20163;-66
2020/12/24 07:17:17;;;;;;;2.88;2.72;;;7.30;72.50;;;;;;5050364;28;20060;-68
2020/12/24 07:19:45;;;;;;;3.10;2.90;;;7.10;73.30;;;;;;5050136;28;20040;-68
2020/12/24 07:22:18;;;;;;;3.47;2.95;;;7.40;73.00;;;;;;5050088;28;20488;-65
2020/12/24 07:25:12;;;;;;;3.63;3.42;;;7.30;72.40;;;;;;5050448;28;20498;-67
2020/12/24 07:27:48;;;;;;;3.50;3.03;;;7.10;73.50;;;;;;5047880;28;20532;-68
2020/12/24 07:30:15;;;;;;;7.95;3.20;;;;;;;;;;5050506;28;20040;-67
2020/12/24 07:32:41;;;;;;;3.40;3.10;;;;;;;;;;5050117;28;20029;-67
2020/12/24 07:35:14;;;;;;;5.13;3.00;;;7.40;71.30;;;;;;5050380;28;20039;-68
2020/12/24 07:37:42;;;;;;;3.30;3.00;;;7.30;72.20;;;;;;5049921;28;20021;-68
2020/12/24 07:40:09;;;;;;;3.45;2.92;;;;;;;;;;5049487;28;20231;-67
2020/12/24 07:42:35;;;;;;;3.60;3.10;;;;;;;;;;5049838;28;20113;-67
2020/12/24 07:45:02;;;;;;;3.78;3.40;;;;;;;;;;5048776;28;20486;-68
2020/12/24 07:47:28;;;;;;;3.20;3.00;;;;;;;;;;5048899;28;20052;-69
2020/12/24 07:49:54;;;;;;;4.07;3.30;;;;;;;;;;5049938;28;20108;-70
2020/12/24 07:52:21;;;;;;;5.00;3.30;;;;;;;;;;5052656;28;20039;-70
2020/12/24 07:54:47;;;;;;;5.43;3.42;;;;;;;;;;5052929;28;20048;-68
2020/12/24 07:57:20;;;;;;;3.20;3.00;;;8.50;68.20;;;;;;5053611;28;20045;-69
2020/12/24 07:59:46;;;;;;;4.45;3.55;;;;;;;;;;5053286;28;21033;-69
2020/12/24 08:02:12;;;;;;;4.22;3.40;;;;;;;;;;5052984;28;20057;-69
2020/12/24 08:04:39;;;;;;;4.65;3.42;;;;;;;;;;5051773;28;20049;-68
2020/12/24 08:07:05;;;;;;;6.53;3.75;;;;;;;;;;5052987;28;20021;-67
2020/12/24 08:09:32;;;;;;;5.28;3.50;;;;;;;;;;5052600;28;20037;-70
2020/12/24 08:11:59;;;;;;;3.47;3.17;;;8.60;66.90;;;;;;5051619;28;20040;-68
2020/12/24 08:14:27;;;;;;;7.32;3.72;;;8.60;67.50;;;;;;5068322;28;20045;-66
2020/12/24 08:17:17;;;;;;;3.70;3.35;;;8.70;67.50;;;;;;5052747;28;20053;-66
2020/12/24 08:19:48;;;;;;;4.88;3.60;;;8.90;66.50;;;;;;5051742;28;20072;-66
2020/12/24 08:22:27;;;;;;;3.78;3.20;;;9.10;65.70;;;;;;5052197;28;20024;-67
2020/12/24 08:24:54;;;;;;;3.85;3.40;;;9.10;66.20;;;;;;5052796;28;20029;-68
2020/12/24 08:27:21;;;;;;;3.75;3.30;;;;;;;;;;5053083;28;20025;-67
2020/12/24 08:29:48;;;;;;;4.22;3.50;;;8.80;67.70;;;;;;5053116;28;20098;-69
2020/12/24 08:32:15;;;;;;;4.60;3.63;;;8.90;67.40;;;;;;5052821;28;20040;-67
2020/12/24 08:34:41;;;;;;;;;;;8.80;67.90;;;;;;5052723;28;20226;-64
2020/12/24 08:37:07;;;;;;;4.78;3.70;;;;;;;;;;5052407;28;20379;-66
2020/12/24 08:39:33;;;;;;;3.83;3.30;;;;;;;;;;5052640;28;20091;-66
2020/12/24 08:42:00;;;;;;;6.10;3.88;;;;;;;;;;5051062;28;20102;-66
2020/12/24 08:44:26;;;;;;;3.70;3.30;;;;;;;;;;5050279;28;20112;-67
2020/12/24 08:47:09;;;;;;;6.15;3.67;;;8.50;68.60;;;;;;5052161;28;20450;-66
2020/12/24 08:49:43;;;;;;;5.97;4.05;;;8.80;68.50;;;;;;5050190;28;20036;-67
2020/12/24 08:52:23;;;;;;;5.40;3.80;;;8.80;67.20;;;;;;5051954;28;20435;-67
2020/12/24 08:55:07;;;;;;;5.35;3.80;;;8.70;68.00;;;;;;5049971;28;20051;-67
2020/12/24 08:57:34;;;;;;;5.85;3.50;;;8.90;67.70;;;;;;5051676;28;20056;-66
2020/12/24 09:00:03;;;;;;;7.47;3.60;;;9.20;67.10;;;;;;5052118;28;20036;-67
2020/12/24 09:02:31;;;;;;;6.40;4.13;;;9.30;65.40;;;;;;5051397;28;20040;-65
2020/12/24 09:04:58;;;;;;;7.20;3.58;;;;;;;;;;5052385;28;20025;-67
2020/12/24 09:07:35;;;;;;;5.97;4.25;;;9.20;66.20;;;;;;5052267;28;20021;-66
2020/12/24 09:10:01;;;;;;;4.93;3.80;;;;;;;;;;5052732;28;20029;-67
2020/12/24 09:12:28;;;;;;;5.63;3.97;;;;;;;;;;5051520;28;20464;-67
2020/12/24 09:15:07;;;;;;;5.28;3.90;;;8.70;67.80;;;;;;5051659;28;20033;-68
2020/12/24 09:17:34;;;;;;;20.83;4.35;;;;;;;;;;5038756;28;20140;-69
2020/12/24 09:20:05;;;;;;;6.22;4.28;;;8.60;68.20;;;;;;5050185;28;20040;-68
2020/12/24 09:22:32;;;;;;;6.40;3.72;;;;;;;;;;5051559;28;20031;-68
2020/12/24 09:24:58;;;;;;;5.70;4.25;;;;;;;;;;5051387;28;20515;-71
2020/12/24 09:27:24;;;;;;;6.78;4.20;;;;;;;;;;5051563;28;20106;-67
2020/12/24 09:29:51;;;;;;;6.30;3.90;;;;;;;;;;5051475;28;20048;-68
2020/12/24 09:32:17;;;;;;;5.47;3.92;;;;;;;;;;5051114;28;20029;-68
2020/12/24 09:34:44;;;;;;;7.90;4.22;;;;;;;;;;5051421;28;20073;-71
2020/12/24 09:37:11;;;;;;;5.30;3.83;;;;;;;;;;5051004;28;20037;-69
2020/12/24 09:39:37;;;;;;;5.47;3.80;;;;;;;;;;5050874;28;20041;-67
2020/12/24 09:42:04;;;;;;;10.60;4.55;;;;;;;;;;5050815;28;20037;-69
2020/12/24 09:44:31;;;;;;;11.32;4.13;;;;;;;;;;5051152;28;20056;-68
2020/12/24 09:46:57;;;;;;;6.43;4.13;;;;;;;;;;5051169;28;20045;-69
2020/12/24 09:49:23;;;;;;;6.65;3.92;;;;;;;;;;5050656;28;20110;-70
2020/12/24 09:51:49;;;;;;;4.97;3.63;;;;;;;;;;5050832;28;20149;-71
2020/12/24 09:54:16;;;;;;;7.93;3.85;;;;;;;;;;5050906;28;20057;-69
2020/12/24 09:56:42;;;;;;;5.32;3.75;;;;;;;;;;5051142;28;20025;-68
2020/12/24 09:59:08;;;;;;;6.28;4.10;;;;;;;;;;5051634;28;20029;-67
2020/12/24 10:01:34;;;;;;;9.32;4.00;;;;;;;;;;5049699;28;20055;-69
2020/12/24 10:04:01;;;;;;;8.30;4.20;;;;;;;;;;5050782;28;20108;-69
2020/12/24 10:06:29;;;;;;;5.47;3.80;;;;;;;;;;5051346;28;20545;-68
2020/12/24 10:08:56;;;;;;;5.38;3.75;;;;;;;;;;5036721;28;20480;-69
2020/12/24 10:11:23;;;;;;;7.28;3.83;;;;;;;;;;5050439;28;20049;-69
2020/12/24 10:13:49;;;;;;;5.57;3.58;;;;;;;;;;5049213;28;20056;-66
2020/12/24 10:16:16;;;;;;;7.68;3.78;;;;;;;;;;5028456;28;20065;-69
2020/12/24 10:18:42;;;;;;;7.75;3.78;;;;;;;;;;5045677;28;20033;-70
2020/12/24 10:21:10;;;;;;;8.90;3.60;;;10.60;63.40;;;;;;5050374;28;20506;-67
2020/12/24 10:23:37;;;;;;;5.63;3.50;;;;;;;;;;5050437;28;20033;-68
2020/12/24 10:26:03;;;;;;;5.20;3.55;;;;;;;;;;5050552;28;20060;-69
2020/12/24 10:28:29;;;;;;;5.80;3.72;;;;;;;;;;5050354;28;20021;-71
2020/12/24 10:30:56;;;;;;;6.90;4.10;;;;;;;;;;5050278;28;20029;-69
2020/12/24 10:33:22;;;;;;;5.22;3.60;;;;;;;;;;5050285;28;20060;-70
2020/12/24 10:35:48;;;;;;;4.70;3.58;;;;;;;;;;5049957;28;20546;-69
2020/12/24 10:38:15;;;;;;;5.43;3.92;;;;;;;;;;5048989;28;20108;-69
2020/12/24 10:40:41;;;;;;;8.93;3.95;;;;;;;;;;5049985;28;20118;-71
2020/12/24 10:43:07;;;;;;;7.68;4.18;;;;;;;;;;5050466;28;20048;-68
2020/12/24 10:45:34;;;;;;;9.05;4.00;;;;;;;;;;5050800;28;20025;-70
2020/12/24 10:48:00;;;;;;;8.65;4.00;;;;;;;;;;5048991;28;20119;-69
2020/12/24 10:50:27;;;;;;;5.72;3.72;;;;;;;;;;5049169;28;20343;-71
2020/12/24 10:52:54;;;;;;;7.53;4.20;;;;;;;;;;5048685;28;20045;-70
2020/12/24 10:55:20;;;;;;;6.75;4.30;;;;;;;;;;5050046;28;20037;-70
2020/12/24 10:57:46;;;;;;;7.72;4.90;;;;;;;;;;5050104;28;20037;-68
2020/12/24 11:00:14;;;;;;;10.13;5.28;;;;;;;;;;5050301;28;20032;-67
2020/12/24 11:02:41;;;;;;;8.52;5.30;;;;;;;;;;5050117;28;20025;-66
2020/12/24 11:05:07;;;;;;;10.55;5.45;;;;;;;;;;5050100;28;20512;-67
2020/12/24 11:07:34;;;;;;;9.65;4.93;;;;;;;;;;5048840;28;20040;-66
2020/12/24 11:10:00;;;;;;;12.73;4.90;;;;;;;;;;5044023;28;20043;-67
2020/12/24 11:12:27;;;;;;;15.75;4.65;;;;;;;;;;5049849;28;20437;-67
2020/12/24 11:14:53;;;;;;;11.85;4.63;;;;;;;;;;5048821;28;20152;-67
2020/12/24 11:17:19;;;;;;;15.25;4.05;;;;;;;;;;5049816;28;20125;-66
2020/12/24 11:19:46;;;;;;;6.85;3.90;;;;;;;;;;5050222;28;20025;-66
2020/12/24 11:22:12;;;;;;;7.85;4.65;;;;;;;;;;5047386;28;20071;-67
2020/12/24 11:24:39;;;;;;;10.18;4.63;;;;;;;;;;5050063;28;20029;-66
2020/12/24 11:27:05;;;;;;;10.07;4.05;;;;;;;;;;5051996;28;20029;-67
2020/12/24 11:29:31;;;;;;;8.95;3.75;;;;;;;;;;5053775;28;20029;-68
2020/12/24 11:31:58;;;;;;;9.57;4.70;;;;;;;;;;5051898;28;20033;-67
2020/12/24 11:34:28;;;;;;;8.20;4.50;;;10.20;65.30;;;;;;5052011;28;20093;-70
2020/12/24 11:36:55;;;;;;;10.63;4.72;;;;;;;;;;5052200;28;20075;-67
2020/12/24 11:39:21;;;;;;;14.05;5.10;;;;;;;;;;5053300;28;20082;-66
2020/12/24 11:41:48;;;;;;;8.73;4.63;;;;;;;;;;5053155;28;20073;-66
2020/12/24 11:44:14;;;;;;;12.20;4.47;;;;;;;;;;5053528;28;20039;-66
2020/12/24 11:46:40;;;;;;;18.25;5.30;;;;;;;;;;5053401;28;20491;-67
2020/12/24 11:49:06;;;;;;;9.43;4.15;;;;;;;;;;5053114;28;20029;-67
2020/12/24 11:51:33;;;;;;;16.75;4.68;;;;;;;;;;5053242;28;20175;-69
2020/12/24 11:53:59;;;;;;;10.13;4.60;;;;;;;;;;5052967;28;20032;-66
2020/12/24 11:56:25;;;;;;;10.38;4.57;;;;;;;;;;5052631;28;20085;-67
2020/12/24 11:58:52;;;;;;;8.80;4.60;;;10.70;65.00;;;;;;5053353;28;20036;-66
2020/12/24 12:01:22;;;;;;;7.68;4.57;;;10.70;64.20;;;;;;5052834;28;20032;-67
2020/12/24 12:03:50;;;;;;;12.82;4.57;;;10.80;64.20;;;;;;5043436;28;20033;-68
2020/12/24 12:06:16;;;;;;;7.40;3.83;;;;;;;;;;5052477;28;20033;-68
2020/12/24 12:08:43;;;;;;;11.45;4.25;;;;;;;;;;5052830;28;20109;-66
2020/12/24 12:11:09;;;;;;;11.45;5.10;;;;;;;;;;5052365;28;20418;-68
2020/12/24 12:13:38;;;;;;;10.68;6.85;;;10.90;63.80;;;;;;5043425;28;20219;-69
2020/12/24 12:16:08;;;;;;;18.17;6.47;;;10.90;64.00;;;;;;5052706;28;20127;-69
2020/12/24 12:18:35;;;;;;;14.77;5.80;;;10.80;63.80;;;;;;5053963;28;20112;-68
2020/12/24 12:21:03;;;;;;;11.05;5.22;;;10.90;64.20;;;;;;5051379;28;20412;-69
2020/12/24 12:23:29;;;;;;;13.88;5.32;;;;;;;;;;5052604;28;20056;-67
2020/12/24 12:25:56;;;;;;;11.05;5.07;;;;;;;;;;5043537;28;20044;-66
2020/12/24 12:28:22;;;;;;;4.35;3.50;;;;;;;;;;5052881;28;20025;-68
2020/12/24 12:30:48;;;;;;;13.02;4.57;;;;;;;;;;5052652;28;20060;-66
2020/12/24 12:33:15;;;;;;;10.20;4.00;;;;;;;;;;5052204;28;20044;-69
2020/12/24 12:35:41;;;;;;;11.32;4.03;;;;;;;;;;5052064;28;20033;-66
2020/12/24 12:38:07;;;;;;;7.68;3.78;;;;;;;;;;5052275;28;20040;-67
2020/12/24 12:40:34;;;;;;;8.80;4.18;;;;;;;;;;5051852;28;20075;-69
2020/12/24 12:43:00;;;;;;;13.05;4.55;;;;;;;;;;5051981;28;20033;-68
2020/12/24 12:45:26;;;;;;;8.13;4.35;;;;;;;;;;5052440;28;20036;-67
2020/12/24 12:47:52;;;;;;;12.65;4.97;;;;;;;;;;5052340;28;20074;-68
2020/12/24 12:50:19;;;;;;;9.30;4.50;;;;;;;;;;5051989;28;20060;-68
2020/12/24 12:52:45;;;;;;;9.02;4.22;;;;;;;;;;5051856;28;20340;-67
2020/12/24 12:55:11;;;;;;;11.93;4.43;;;;;;;;;;5051726;28;20048;-67
2020/12/24 12:57:39;;;;;;;12.07;4.20;;;;;;;;;;5047348;28;20120;-68
2020/12/24 13:00:08;;;;;;;10.30;3.50;;;11.50;61.60;;;;;;5051914;28;20029;-65
2020/12/24 13:02:34;;;;;;;17.27;4.35;;;;;;;;;;5051766;28;20056;-67
2020/12/24 13:05:00;;;;;;;11.38;3.90;;;;;;;;;;5050622;28;20057;-68
2020/12/24 13:07:26;;;;;;;12.88;4.25;;;;;;;;;;5050388;28;20104;-68
2020/12/24 13:09:53;;;;;;;13.68;3.58;;;;;;;;;;5051171;28;20033;-66
2020/12/24 13:12:19;;;;;;;8.25;3.88;;;;;;;;;;5038185;28;20170;-68
2020/12/24 13:14:45;;;;;;;11.05;3.38;;;;;;;;;;5050666;28;20096;-68
2020/12/24 13:17:11;;;;;;;11.82;4.13;;;;;;;;;;5051587;28;20059;-69
2020/12/24 13:19:38;;;;;;;13.00;4.20;;;;;;;;;;5051858;28;20025;-68
2020/12/24 13:22:04;;;;;;;15.10;3.45;;;;;;;;;;5049865;28;20495;-67
2020/12/24 13:24:30;;;;;;;11.30;3.90;;;;;;;;;;5051346;28;20047;-68
2020/12/24 13:26:57;;;;;;;13.82;3.60;;;;;;;;;;5050244;28;20039;-68
2020/12/24 13:29:23;;;;;;;5.55;3.22;;;;;;;;;;5050408;28;20033;-66
2020/12/24 13:31:50;;;;;;;10.55;3.53;;;;;;;;;;5051425;28;20033;-68
2020/12/24 13:34:17;;;;;;;13.23;4.20;;;11.50;59.60;;;;;;5049782;28;20048;-67
2020/12/24 13:36:47;;;;;;;14.40;3.45;;;11.60;59.10;;;;;;5049771;28;20033;-67
2020/12/24 13:39:13;;;;;;;7.88;3.10;;;;;;;;;;5050672;28;20128;-67
2020/12/24 13:41:40;;;;;;;10.98;3.20;;;;;;;;;;5051439;28;20032;-67
2020/12/24 13:44:06;;;;;;;;;;;11.60;58.60;;;;;;5051363;28;20441;-66
2020/12/24 13:46:32;;;;;;;15.27;3.33;;;;;;;;;;5051271;28;19909;-69
2020/12/24 13:49:03;;;;;;;14.10;3.95;;;;;;;;;;5050491;28;20083;-67
2020/12/24 13:51:29;;;;;;;13.90;3.47;;;;;;;;;;5049219;28;20511;-67
2020/12/24 13:53:55;;;;;;;15.05;2.78;;;;;;;;;;5050643;28;20041;-67
2020/12/24 13:56:23;;;;;;;11.80;3.22;;;11.60;58.20;;;;;;5050890;28;20033;-67
2020/12/24 13:58:49;;;;;;;8.27;3.45;;;;;;;;;;5050479;28;20120;-66
2020/12/24 14:01:16;;;;;;;15.65;4.13;;;;;;;;;;5050177;28;20120;-67
2020/12/24 14:03:43;;;;;;;8.98;3.50;;;11.70;57.70;;;;;;5050686;28;20073;-67
2020/12/24 14:06:12;;;;;;;9.40;3.53;;;11.60;57.80;;;;;;5049204;28;20040;-66
2020/12/24 14:08:39;;;;;;;9.77;3.42;;;11.60;58.30;;;;;;5050394;28;20025;-67
2020/12/24 14:11:06;;;;;;;9.85;3.83;;;;;;;;;;5050229;28;20151;-67
2020/12/24 14:13:32;;;;;;;8.52;3.50;;;;;;;;;;5050503;28;20029;-67